sensor_id;sensor_type;location;lat;lon;timestamp;P1;durP1;ratioP1;P2;durP2;ratioP2
3054;SDS011;1537;52.018;8.542;2023-05-10T00:03:08;9.20;;;7.10;;
3054;SDS011;1537;52.018;8.542;2023-05-10T00:06:32;8.70;;;7.47;;
3054;SDS011;1537;52.018;8.542;2023-05-10T00:09:56;9.27;;;6.23;;
3054;SDS011;1537;52.018;8.542;2023-05-10T00:13:19;10.27;;;7.80;;
3054;SDS011;1537;52.018;8.542;2023-05-10T00:16:43;10.27;;;8.30;;
3054;SDS011;1537;52.018;8.542;2023-05-10T00:20:09;9.23;;;7.90;;
3054;SDS011;1537;52.018;8.542;2023-05-10T00:23:33;9.40;;;7.30;;
3054;SDS011;1537;52.018;8.542;2023-05-10T00:26:57;10.90;;;7.37;;
3054;SDS011;1537;52.018;8.542;2023-05-10T00:30:21;10.03;;;8.27;;
3054;SDS011;1537;52.018;8.542;2023-05-10T00:33:44;10.10;;;8.23;;
3054;SDS011;1537;52.018;8.542;2023-05-10T00:37:09;10.70;;;8.70;;
3054;SDS011;1537;52.018;8.542;2023-05-10T00:40:35;10.50;;;8.00;;
3054;SDS011;1537;52.018;8.542;2023-05-10T00:44:02;9.50;;;7.67;;
3054;SDS011;1537;52.018;8.542;2023-05-10T00:47:27;10.80;;;8.60;;
3054;SDS011;1537;52.018;8.542;2023-05-10T00:50:51;10.93;;;8.27;;
3054;SDS011;1537;52.018;8.542;2023-05-10T00:54:16;9.90;;;7.00;;
3054;SDS011;1537;52.018;8.542;2023-05-10T00:57:40;10.60;;;8.67;;
3054;SDS011;1537;52.018;8.542;2023-05-10T01:01:05;14.23;;;8.97;;
3054;SDS011;1537;52.018;8.542;2023-05-10T01:04:29;11.43;;;8.80;;
3054;SDS011;1537;52.018;8.542;2023-05-10T01:07:53;11.33;;;8.57;;
3054;SDS011;1537;52.018;8.542;2023-05-10T01:11:18;10.50;;;8.00;;
3054;SDS011;1537;52.018;8.542;2023-05-10T01:14:42;9.40;;;7.77;;
3054;SDS011;1537;52.018;8.542;2023-05-10T01:18:06;9.70;;;7.90;;
3054;SDS011;1537;52.018;8.542;2023-05-10T01:21:33;11.67;;;7.20;;
3054;SDS011;1537;52.018;8.542;2023-05-10T01:25:06;10.03;;;7.87;;
3054;SDS011;1537;52.018;8.542;2023-05-10T01:28:48;9.97;;;7.43;;
3054;SDS011;1537;52.018;8.542;2023-05-10T01:32:37;10.70;;;7.13;;
3054;SDS011;1537;52.018;8.542;2023-05-10T01:36:11;11.10;;;8.47;;
3054;SDS011;1537;52.018;8.542;2023-05-10T01:39:41;10.10;;;8.40;;
3054;SDS011;1537;52.018;8.542;2023-05-10T01:43:11;13.47;;;10.17;;
3054;SDS011;1537;52.018;8.542;2023-05-10T01:46:40;12.90;;;8.90;;
3054;SDS011;1537;52.018;8.542;2023-05-10T01:50:06;14.20;;;10.60;;
3054;SDS011;1537;52.018;8.542;2023-05-10T01:53:33;13.40;;;8.40;;
3054;SDS011;1537;52.018;8.542;2023-05-10T01:57:01;10.70;;;7.67;;
3054;SDS011;1537;52.018;8.542;2023-05-10T02:00:28;12.53;;;8.43;;
3054;SDS011;1537;52.018;8.542;2023-05-10T02:03:53;8.27;;;5.87;;
3054;SDS011;1537;52.018;8.542;2023-05-10T02:07:19;8.23;;;6.03;;
3054;SDS011;1537;52.018;8.542;2023-05-10T02:10:45;8.93;;;6.97;;
3054;SDS011;1537;52.018;8.542;2023-05-10T02:14:09;10.20;;;6.90;;
3054;SDS011;1537;52.018;8.542;2023-05-10T02:17:35;7.90;;;6.00;;
3054;SDS011;1537;52.018;8.542;2023-05-10T02:21:01;9.00;;;6.20;;
3054;SDS011;1537;52.018;8.542;2023-05-10T02:24:27;8.90;;;4.23;;
3054;SDS011;1537;52.018;8.542;2023-05-10T02:27:53;8.20;;;5.17;;
3054;SDS011;1537;52.018;8.542;2023-05-10T02:31:19;7.87;;;5.30;;
3054;SDS011;1537;52.018;8.542;2023-05-10T02:34:43;7.40;;;4.80;;
3054;SDS011;1537;52.018;8.542;2023-05-10T02:38:13;7.43;;;5.17;;
3054;SDS011;1537;52.018;8.542;2023-05-10T02:41:40;8.30;;;5.90;;
3054;SDS011;1537;52.018;8.542;2023-05-10T02:45:07;8.37;;;5.87;;
3054;SDS011;1537;52.018;8.542;2023-05-10T02:48:35;8.60;;;6.47;;
3054;SDS011;1537;52.018;8.542;2023-05-10T02:52:01;9.13;;;6.90;;
3054;SDS011;1537;52.018;8.542;2023-05-10T02:55:31;11.00;;;7.87;;
3054;SDS011;1537;52.018;8.542;2023-05-10T02:59:05;9.30;;;7.53;;
3054;SDS011;1537;52.018;8.542;2023-05-10T03:02:28;10.43;;;6.60;;
3054;SDS011;1537;52.018;8.542;2023-05-10T03:05:53;8.47;;;6.43;;
3054;SDS011;1537;52.018;8.542;2023-05-10T03:09:18;9.27;;;6.67;;
3054;SDS011;1537;52.018;8.542;2023-05-10T03:12:47;9.20;;;7.10;;
3054;SDS011;1537;52.018;8.542;2023-05-10T03:16:22;9.30;;;7.20;;
3054;SDS011;1537;52.018;8.542;2023-05-10T03:19:53;8.83;;;6.20;;
3054;SDS011;1537;52.018;8.542;2023-05-10T03:23:21;10.40;;;8.27;;
3054;SDS011;1537;52.018;8.542;2023-05-10T03:26:52;14.10;;;10.50;;
3054;SDS011;1537;52.018;8.542;2023-05-10T03:30:19;17.90;;;11.73;;
3054;SDS011;1537;52.018;8.542;2023-05-10T03:33:48;17.60;;;12.43;;
3054;SDS011;1537;52.018;8.542;2023-05-10T03:37:18;18.20;;;13.60;;
3054;SDS011;1537;52.018;8.542;2023-05-10T03:40:41;14.23;;;10.60;;
3054;SDS011;1537;52.018;8.542;2023-05-10T03:44:05;12.50;;;8.90;;
3054;SDS011;1537;52.018;8.542;2023-05-10T03:47:29;8.97;;;6.07;;
3054;SDS011;1537;52.018;8.542;2023-05-10T03:50:54;8.17;;;6.37;;
3054;SDS011;1537;52.018;8.542;2023-05-10T03:54:19;7.47;;;4.97;;
3054;SDS011;1537;52.018;8.542;2023-05-10T03:57:43;7.00;;;4.63;;
3054;SDS011;1537;52.018;8.542;2023-05-10T04:01:07;7.73;;;5.60;;
3054;SDS011;1537;52.018;8.542;2023-05-10T04:04:32;7.23;;;5.10;;
3054;SDS011;1537;52.018;8.542;2023-05-10T04:07:57;6.63;;;4.70;;
3054;SDS011;1537;52.018;8.542;2023-05-10T04:11:20;5.67;;;3.67;;
3054;SDS011;1537;52.018;8.542;2023-05-10T04:14:44;5.53;;;3.20;;
3054;SDS011;1537;52.018;8.542;2023-05-10T04:18:08;4.47;;;2.10;;
3054;SDS011;1537;52.018;8.542;2023-05-10T04:21:32;4.30;;;1.77;;
3054;SDS011;1537;52.018;8.542;2023-05-10T04:24:57;5.17;;;2.10;;
3054;SDS011;1537;52.018;8.542;2023-05-10T04:28:20;4.20;;;1.60;;
3054;SDS011;1537;52.018;8.542;2023-05-10T04:31:44;3.80;;;1.57;;
3054;SDS011;1537;52.018;8.542;2023-05-10T04:35:08;3.50;;;1.30;;
3054;SDS011;1537;52.018;8.542;2023-05-10T04:38:32;3.90;;;1.43;;
3054;SDS011;1537;52.018;8.542;2023-05-10T04:41:57;3.87;;;1.30;;
3054;SDS011;1537;52.018;8.542;2023-05-10T04:45:21;4.13;;;1.93;;
3054;SDS011;1537;52.018;8.542;2023-05-10T04:48:45;4.50;;;1.40;;
3054;SDS011;1537;52.018;8.542;2023-05-10T04:52:09;3.97;;;1.80;;
3054;SDS011;1537;52.018;8.542;2023-05-10T04:55:33;4.33;;;2.50;;
3054;SDS011;1537;52.018;8.542;2023-05-10T04:58:58;4.50;;;2.00;;
3054;SDS011;1537;52.018;8.542;2023-05-10T05:02:22;5.70;;;2.20;;
3054;SDS011;1537;52.018;8.542;2023-05-10T05:05:46;5.30;;;2.37;;
3054;SDS011;1537;52.018;8.542;2023-05-10T05:09:10;4.90;;;2.17;;
3054;SDS011;1537;52.018;8.542;2023-05-10T05:12:34;4.90;;;2.10;;
3054;SDS011;1537;52.018;8.542;2023-05-10T05:16:01;4.80;;;2.50;;
3054;SDS011;1537;52.018;8.542;2023-05-10T05:19:25;5.27;;;2.33;;
3054;SDS011;1537;52.018;8.542;2023-05-10T05:22:49;4.53;;;2.10;;
3054;SDS011;1537;52.018;8.542;2023-05-10T05:26:13;4.70;;;2.50;;
3054;SDS011;1537;52.018;8.542;2023-05-10T05:29:37;7.60;;;3.50;;
3054;SDS011;1537;52.018;8.542;2023-05-10T05:33:02;6.00;;;3.40;;
3054;SDS011;1537;52.018;8.542;2023-05-10T05:36:26;6.13;;;3.00;;
3054;SDS011;1537;52.018;8.542;2023-05-10T05:39:50;6.07;;;3.40;;
3054;SDS011;1537;52.018;8.542;2023-05-10T05:43:13;6.10;;;3.27;;
3054;SDS011;1537;52.018;8.542;2023-05-10T05:46:37;5.73;;;3.13;;
3054;SDS011;1537;52.018;8.542;2023-05-10T05:50:02;6.27;;;3.30;;
3054;SDS011;1537;52.018;8.542;2023-05-10T05:53:26;6.47;;;2.57;;
3054;SDS011;1537;52.018;8.542;2023-05-10T05:56:50;5.20;;;2.93;;
3054;SDS011;1537;52.018;8.542;2023-05-10T06:00:14;5.53;;;3.10;;
3054;SDS011;1537;52.018;8.542;2023-05-10T06:03:40;5.50;;;3.13;;
3054;SDS011;1537;52.018;8.542;2023-05-10T06:07:05;5.20;;;2.77;;
3054;SDS011;1537;52.018;8.542;2023-05-10T06:10:29;4.77;;;2.43;;
3054;SDS011;1537;52.018;8.542;2023-05-10T06:13:53;5.50;;;2.50;;
3054;SDS011;1537;52.018;8.542;2023-05-10T06:17:17;5.70;;;2.60;;
3054;SDS011;1537;52.018;8.542;2023-05-10T06:20:41;6.30;;;3.30;;
3054;SDS011;1537;52.018;8.542;2023-05-10T06:24:06;7.57;;;2.90;;
3054;SDS011;1537;52.018;8.542;2023-05-10T06:27:30;7.07;;;3.43;;
3054;SDS011;1537;52.018;8.542;2023-05-10T06:30:54;5.30;;;2.33;;
3054;SDS011;1537;52.018;8.542;2023-05-10T06:34:17;6.17;;;3.40;;
3054;SDS011;1537;52.018;8.542;2023-05-10T06:37:41;5.50;;;3.10;;
3054;SDS011;1537;52.018;8.542;2023-05-10T06:41:06;5.50;;;2.67;;
3054;SDS011;1537;52.018;8.542;2023-05-10T06:44:33;7.60;;;2.97;;
3054;SDS011;1537;52.018;8.542;2023-05-10T06:47:57;5.53;;;3.00;;
3054;SDS011;1537;52.018;8.542;2023-05-10T06:51:20;5.60;;;2.83;;
3054;SDS011;1537;52.018;8.542;2023-05-10T06:54:44;7.27;;;3.50;;
3054;SDS011;1537;52.018;8.542;2023-05-10T06:58:09;8.00;;;3.57;;
3054;SDS011;1537;52.018;8.542;2023-05-10T07:01:32;6.57;;;2.93;;
3054;SDS011;1537;52.018;8.542;2023-05-10T07:04:56;5.93;;;3.00;;
3054;SDS011;1537;52.018;8.542;2023-05-10T07:08:36;6.03;;;2.63;;
3054;SDS011;1537;52.018;8.542;2023-05-10T07:11:59;7.90;;;5.40;;
3054;SDS011;1537;52.018;8.542;2023-05-10T07:15:25;8.30;;;4.20;;
3054;SDS011;1537;52.018;8.542;2023-05-10T07:18:48;7.00;;;4.33;;
3054;SDS011;1537;52.018;8.542;2023-05-10T07:22:12;9.27;;;4.83;;
3054;SDS011;1537;52.018;8.542;2023-05-10T07:25:36;8.13;;;4.27;;
3054;SDS011;1537;52.018;8.542;2023-05-10T07:29:00;9.33;;;4.67;;
3054;SDS011;1537;52.018;8.542;2023-05-10T07:32:25;8.23;;;4.90;;
3054;SDS011;1537;52.018;8.542;2023-05-10T07:35:49;6.30;;;4.27;;
3054;SDS011;1537;52.018;8.542;2023-05-10T07:39:13;10.47;;;5.30;;
3054;SDS011;1537;52.018;8.542;2023-05-10T07:42:47;8.63;;;5.40;;
3054;SDS011;1537;52.018;8.542;2023-05-10T07:46:11;12.17;;;6.03;;
3054;SDS011;1537;52.018;8.542;2023-05-10T07:49:36;11.93;;;6.43;;
3054;SDS011;1537;52.018;8.542;2023-05-10T07:53:00;10.63;;;7.17;;
3054;SDS011;1537;52.018;8.542;2023-05-10T07:56:24;9.00;;;6.57;;
3054;SDS011;1537;52.018;8.542;2023-05-10T07:59:51;9.33;;;6.33;;
3054;SDS011;1537;52.018;8.542;2023-05-10T08:03:15;11.63;;;7.57;;
3054;SDS011;1537;52.018;8.542;2023-05-10T08:06:40;14.00;;;7.53;;
3054;SDS011;1537;52.018;8.542;2023-05-10T08:10:04;11.40;;;7.40;;
3054;SDS011;1537;52.018;8.542;2023-05-10T08:13:29;13.47;;;8.50;;
3054;SDS011;1537;52.018;8.542;2023-05-10T08:16:53;16.57;;;9.07;;
3054;SDS011;1537;52.018;8.542;2023-05-10T08:20:17;15.23;;;8.70;;
3054;SDS011;1537;52.018;8.542;2023-05-10T08:23:42;14.70;;;10.50;;
3054;SDS011;1537;52.018;8.542;2023-05-10T08:27:07;15.93;;;10.33;;
3054;SDS011;1537;52.018;8.542;2023-05-10T08:30:31;16.43;;;10.23;;
3054;SDS011;1537;52.018;8.542;2023-05-10T08:33:55;16.23;;;11.60;;
3054;SDS011;1537;52.018;8.542;2023-05-10T08:37:18;15.90;;;10.67;;
3054;SDS011;1537;52.018;8.542;2023-05-10T08:40:44;13.97;;;10.40;;
3054;SDS011;1537;52.018;8.542;2023-05-10T08:44:08;16.73;;;11.70;;
3054;SDS011;1537;52.018;8.542;2023-05-10T08:47:34;16.20;;;10.63;;
3054;SDS011;1537;52.018;8.542;2023-05-10T08:51:00;18.37;;;10.77;;
3054;SDS011;1537;52.018;8.542;2023-05-10T08:54:25;19.40;;;12.87;;
3054;SDS011;1537;52.018;8.542;2023-05-10T08:57:51;16.77;;;11.77;;
3054;SDS011;1537;52.018;8.542;2023-05-10T09:01:14;15.40;;;11.57;;
3054;SDS011;1537;52.018;8.542;2023-05-10T09:04:41;22.70;;;14.87;;
3054;SDS011;1537;52.018;8.542;2023-05-10T09:08:05;18.37;;;11.60;;
3054;SDS011;1537;52.018;8.542;2023-05-10T09:11:29;20.57;;;13.43;;
3054;SDS011;1537;52.018;8.542;2023-05-10T09:14:54;22.93;;;12.97;;
3054;SDS011;1537;52.018;8.542;2023-05-10T09:18:20;18.03;;;12.37;;
3054;SDS011;1537;52.018;8.542;2023-05-10T09:21:46;22.23;;;13.50;;
3054;SDS011;1537;52.018;8.542;2023-05-10T09:25:11;18.27;;;13.43;;
3054;SDS011;1537;52.018;8.542;2023-05-10T09:28:50;27.10;;;16.50;;
3054;SDS011;1537;52.018;8.542;2023-05-10T09:32:16;24.33;;;15.70;;
3054;SDS011;1537;52.018;8.542;2023-05-10T09:35:39;23.60;;;15.80;;
3054;SDS011;1537;52.018;8.542;2023-05-10T09:39:04;19.87;;;15.03;;
3054;SDS011;1537;52.018;8.542;2023-05-10T09:42:27;25.33;;;15.10;;
3054;SDS011;1537;52.018;8.542;2023-05-10T09:45:51;21.53;;;14.03;;
3054;SDS011;1537;52.018;8.542;2023-05-10T09:49:16;19.00;;;13.90;;
3054;SDS011;1537;52.018;8.542;2023-05-10T09:52:47;20.50;;;15.17;;
3054;SDS011;1537;52.018;8.542;2023-05-10T09:56:12;16.87;;;13.10;;
3054;SDS011;1537;52.018;8.542;2023-05-10T09:59:36;18.17;;;14.30;;
3054;SDS011;1537;52.018;8.542;2023-05-10T10:03:06;17.83;;;13.57;;
3054;SDS011;1537;52.018;8.542;2023-05-10T10:06:37;15.80;;;12.47;;
3054;SDS011;1537;52.018;8.542;2023-05-10T10:10:01;16.37;;;12.83;;
3054;SDS011;1537;52.018;8.542;2023-05-10T10:13:26;17.70;;;13.07;;
3054;SDS011;1537;52.018;8.542;2023-05-10T10:16:50;13.23;;;10.80;;
3054;SDS011;1537;52.018;8.542;2023-05-10T10:20:29;16.50;;;12.63;;
3054;SDS011;1537;52.018;8.542;2023-05-10T10:23:54;16.53;;;12.43;;
3054;SDS011;1537;52.018;8.542;2023-05-10T10:27:20;13.73;;;10.80;;
3054;SDS011;1537;52.018;8.542;2023-05-10T10:30:48;13.57;;;10.47;;
3054;SDS011;1537;52.018;8.542;2023-05-10T10:34:21;11.63;;;10.40;;
3054;SDS011;1537;52.018;8.542;2023-05-10T10:37:50;11.43;;;9.87;;
3054;SDS011;1537;52.018;8.542;2023-05-10T10:41:27;14.93;;;11.00;;
3054;SDS011;1537;52.018;8.542;2023-05-10T10:44:58;12.47;;;10.60;;
3054;SDS011;1537;52.018;8.542;2023-05-10T10:48:35;12.00;;;9.47;;
3054;SDS011;1537;52.018;8.542;2023-05-10T10:52:21;10.77;;;9.57;;
3054;SDS011;1537;52.018;8.542;2023-05-10T10:55:48;9.30;;;7.50;;
3054;SDS011;1537;52.018;8.542;2023-05-10T10:59:13;9.47;;;7.70;;
3054;SDS011;1537;52.018;8.542;2023-05-10T11:02:50;9.93;;;7.60;;
3054;SDS011;1537;52.018;8.542;2023-05-10T11:06:17;12.47;;;7.53;;
3054;SDS011;1537;52.018;8.542;2023-05-10T11:09:53;10.30;;;5.97;;
3054;SDS011;1537;52.018;8.542;2023-05-10T11:13:26;10.57;;;7.80;;
3054;SDS011;1537;52.018;8.542;2023-05-10T11:16:52;9.53;;;6.70;;
3054;SDS011;1537;52.018;8.542;2023-05-10T11:20:15;10.80;;;6.73;;
3054;SDS011;1537;52.018;8.542;2023-05-10T11:23:48;14.17;;;7.77;;
3054;SDS011;1537;52.018;8.542;2023-05-10T11:27:12;11.50;;;7.37;;
3054;SDS011;1537;52.018;8.542;2023-05-10T11:30:36;12.70;;;8.67;;
3054;SDS011;1537;52.018;8.542;2023-05-10T11:34:02;10.80;;;6.93;;
3054;SDS011;1537;52.018;8.542;2023-05-10T11:37:28;11.53;;;7.23;;
3054;SDS011;1537;52.018;8.542;2023-05-10T11:40:54;10.90;;;7.27;;
3054;SDS011;1537;52.018;8.542;2023-05-10T11:44:18;11.70;;;7.50;;
3054;SDS011;1537;52.018;8.542;2023-05-10T11:47:41;11.50;;;7.90;;
3054;SDS011;1537;52.018;8.542;2023-05-10T11:51:07;12.10;;;8.50;;
3054;SDS011;1537;52.018;8.542;2023-05-10T11:54:31;16.13;;;8.90;;
3054;SDS011;1537;52.018;8.542;2023-05-10T11:57:59;25.03;;;9.10;;
3054;SDS011;1537;52.018;8.542;2023-05-10T12:01:25;9.93;;;7.43;;
3054;SDS011;1537;52.018;8.542;2023-05-10T12:04:52;13.47;;;6.70;;
3054;SDS011;1537;52.018;8.542;2023-05-10T12:08:21;12.00;;;6.70;;
3054;SDS011;1537;52.018;8.542;2023-05-10T12:11:45;10.23;;;6.77;;
3054;SDS011;1537;52.018;8.542;2023-05-10T12:15:10;17.13;;;9.30;;
3054;SDS011;1537;52.018;8.542;2023-05-10T12:18:35;23.13;;;11.20;;
3054;SDS011;1537;52.018;8.542;2023-05-10T12:22:04;24.37;;;13.17;;
3054;SDS011;1537;52.018;8.542;2023-05-10T12:25:30;19.23;;;11.57;;
3054;SDS011;1537;52.018;8.542;2023-05-10T12:29:00;21.30;;;12.27;;
3054;SDS011;1537;52.018;8.542;2023-05-10T12:32:38;17.07;;;12.77;;
3054;SDS011;1537;52.018;8.542;2023-05-10T12:36:02;28.03;;;13.50;;
3054;SDS011;1537;52.018;8.542;2023-05-10T12:39:26;22.47;;;13.70;;
3054;SDS011;1537;52.018;8.542;2023-05-10T12:43:03;19.30;;;14.00;;
3054;SDS011;1537;52.018;8.542;2023-05-10T12:46:27;19.87;;;11.97;;
3054;SDS011;1537;52.018;8.542;2023-05-10T12:49:51;18.17;;;12.17;;
3054;SDS011;1537;52.018;8.542;2023-05-10T12:53:15;34.07;;;17.40;;
3054;SDS011;1537;52.018;8.542;2023-05-10T12:56:40;29.90;;;14.30;;
3054;SDS011;1537;52.018;8.542;2023-05-10T13:00:06;29.47;;;14.13;;
3054;SDS011;1537;52.018;8.542;2023-05-10T13:03:31;18.70;;;12.80;;
3054;SDS011;1537;52.018;8.542;2023-05-10T13:06:54;23.97;;;13.50;;
3054;SDS011;1537;52.018;8.542;2023-05-10T13:10:20;20.23;;;13.23;;
3054;SDS011;1537;52.018;8.542;2023-05-10T13:13:45;24.87;;;14.13;;
3054;SDS011;1537;52.018;8.542;2023-05-10T13:17:10;17.97;;;11.13;;
3054;SDS011;1537;52.018;8.542;2023-05-10T13:20:34;16.57;;;12.30;;
3054;SDS011;1537;52.018;8.542;2023-05-10T13:23:57;17.63;;;12.30;;
3054;SDS011;1537;52.018;8.542;2023-05-10T13:27:21;56.80;;;17.27;;
3054;SDS011;1537;52.018;8.542;2023-05-10T13:30:45;29.20;;;14.30;;
3054;SDS011;1537;52.018;8.542;2023-05-10T13:34:10;21.90;;;14.30;;
3054;SDS011;1537;52.018;8.542;2023-05-10T13:37:34;27.03;;;15.33;;
3054;SDS011;1537;52.018;8.542;2023-05-10T13:40:59;14.90;;;8.70;;
3054;SDS011;1537;52.018;8.542;2023-05-10T13:44:22;16.40;;;9.50;;
3054;SDS011;1537;52.018;8.542;2023-05-10T13:47:46;18.50;;;11.60;;
3054;SDS011;1537;52.018;8.542;2023-05-10T13:51:11;25.30;;;12.43;;
3054;SDS011;1537;52.018;8.542;2023-05-10T13:54:35;17.90;;;12.20;;
3054;SDS011;1537;52.018;8.542;2023-05-10T13:58:00;17.13;;;11.03;;
3054;SDS011;1537;52.018;8.542;2023-05-10T14:01:23;22.00;;;12.17;;
3054;SDS011;1537;52.018;8.542;2023-05-10T14:04:47;39.80;;;13.60;;
3054;SDS011;1537;52.018;8.542;2023-05-10T14:08:12;16.07;;;10.73;;
3054;SDS011;1537;52.018;8.542;2023-05-10T14:11:36;21.43;;;13.50;;
3054;SDS011;1537;52.018;8.542;2023-05-10T14:15:03;20.03;;;12.73;;
3054;SDS011;1537;52.018;8.542;2023-05-10T14:18:28;18.83;;;12.13;;
3054;SDS011;1537;52.018;8.542;2023-05-10T14:21:52;13.93;;;11.07;;
3054;SDS011;1537;52.018;8.542;2023-05-10T14:25:17;18.77;;;11.80;;
3054;SDS011;1537;52.018;8.542;2023-05-10T14:28:41;21.70;;;11.67;;
3054;SDS011;1537;52.018;8.542;2023-05-10T14:32:05;16.20;;;12.00;;
3054;SDS011;1537;52.018;8.542;2023-05-10T14:35:29;18.10;;;11.20;;
3054;SDS011;1537;52.018;8.542;2023-05-10T14:38:53;16.17;;;11.57;;
3054;SDS011;1537;52.018;8.542;2023-05-10T14:42:18;25.20;;;12.50;;
3054;SDS011;1537;52.018;8.542;2023-05-10T14:45:42;21.60;;;12.83;;
3054;SDS011;1537;52.018;8.542;2023-05-10T14:49:06;20.47;;;12.40;;
3054;SDS011;1537;52.018;8.542;2023-05-10T14:52:30;23.70;;;12.90;;
3054;SDS011;1537;52.018;8.542;2023-05-10T14:55:55;15.83;;;13.13;;
3054;SDS011;1537;52.018;8.542;2023-05-10T14:59:20;21.83;;;14.53;;
3054;SDS011;1537;52.018;8.542;2023-05-10T15:02:44;23.23;;;14.27;;
3054;SDS011;1537;52.018;8.542;2023-05-10T15:06:10;18.03;;;13.13;;
3054;SDS011;1537;52.018;8.542;2023-05-10T15:09:34;16.80;;;12.63;;
3054;SDS011;1537;52.018;8.542;2023-05-10T15:12:58;17.83;;;12.90;;
3054;SDS011;1537;52.018;8.542;2023-05-10T15:16:24;16.27;;;12.57;;
3054;SDS011;1537;52.018;8.542;2023-05-10T15:19:47;19.20;;;12.30;;
3054;SDS011;1537;52.018;8.542;2023-05-10T15:23:12;19.33;;;13.60;;
3054;SDS011;1537;52.018;8.542;2023-05-10T15:26:35;18.60;;;14.67;;
3054;SDS011;1537;52.018;8.542;2023-05-10T15:29:59;25.10;;;16.10;;
3054;SDS011;1537;52.018;8.542;2023-05-10T15:33:25;25.30;;;14.67;;
3054;SDS011;1537;52.018;8.542;2023-05-10T15:36:49;23.50;;;17.00;;
3054;SDS011;1537;52.018;8.542;2023-05-10T15:40:12;23.53;;;15.43;;
3054;SDS011;1537;52.018;8.542;2023-05-10T15:43:36;20.30;;;13.83;;
3054;SDS011;1537;52.018;8.542;2023-05-10T15:47:00;19.70;;;14.30;;
3054;SDS011;1537;52.018;8.542;2023-05-10T15:50:26;19.10;;;12.90;;
3054;SDS011;1537;52.018;8.542;2023-05-10T15:53:49;18.13;;;13.63;;
3054;SDS011;1537;52.018;8.542;2023-05-10T15:57:27;21.37;;;15.93;;
3054;SDS011;1537;52.018;8.542;2023-05-10T16:00:51;19.40;;;14.20;;
3054;SDS011;1537;52.018;8.542;2023-05-10T16:04:15;21.60;;;15.20;;
3054;SDS011;1537;52.018;8.542;2023-05-10T16:07:41;20.33;;;12.67;;
3054;SDS011;1537;52.018;8.542;2023-05-10T16:11:06;19.27;;;12.27;;
3054;SDS011;1537;52.018;8.542;2023-05-10T16:14:29;20.10;;;12.23;;
3054;SDS011;1537;52.018;8.542;2023-05-10T16:17:56;20.27;;;13.03;;
3054;SDS011;1537;52.018;8.542;2023-05-10T16:21:19;23.33;;;13.00;;
3054;SDS011;1537;52.018;8.542;2023-05-10T16:24:44;16.23;;;12.30;;
3054;SDS011;1537;52.018;8.542;2023-05-10T16:28:08;19.90;;;12.30;;
3054;SDS011;1537;52.018;8.542;2023-05-10T16:31:32;19.17;;;12.80;;
3054;SDS011;1537;52.018;8.542;2023-05-10T16:34:56;15.87;;;10.97;;
3054;SDS011;1537;52.018;8.542;2023-05-10T16:38:20;16.57;;;11.83;;
3054;SDS011;1537;52.018;8.542;2023-05-10T16:41:45;18.63;;;11.63;;
3054;SDS011;1537;52.018;8.542;2023-05-10T16:45:09;16.20;;;10.70;;
3054;SDS011;1537;52.018;8.542;2023-05-10T16:48:34;15.57;;;10.70;;
3054;SDS011;1537;52.018;8.542;2023-05-10T16:51:57;16.50;;;11.60;;
3054;SDS011;1537;52.018;8.542;2023-05-10T16:55:22;16.77;;;9.60;;
3054;SDS011;1537;52.018;8.542;2023-05-10T16:58:51;16.30;;;10.50;;
3054;SDS011;1537;52.018;8.542;2023-05-10T17:02:15;20.03;;;9.97;;
3054;SDS011;1537;52.018;8.542;2023-05-10T17:05:39;15.70;;;10.60;;
3054;SDS011;1537;52.018;8.542;2023-05-10T17:09:03;17.20;;;11.10;;
3054;SDS011;1537;52.018;8.542;2023-05-10T17:12:28;14.63;;;9.20;;
3054;SDS011;1537;52.018;8.542;2023-05-10T17:15:53;15.53;;;10.20;;
3054;SDS011;1537;52.018;8.542;2023-05-10T17:19:17;17.93;;;11.87;;
3054;SDS011;1537;52.018;8.542;2023-05-10T17:22:41;16.57;;;9.83;;
3054;SDS011;1537;52.018;8.542;2023-05-10T17:26:06;15.57;;;10.77;;
3054;SDS011;1537;52.018;8.542;2023-05-10T17:29:32;15.30;;;10.30;;
3054;SDS011;1537;52.018;8.542;2023-05-10T17:32:57;13.93;;;8.60;;
3054;SDS011;1537;52.018;8.542;2023-05-10T17:36:21;12.10;;;7.87;;
3054;SDS011;1537;52.018;8.542;2023-05-10T17:39:46;12.00;;;7.63;;
3054;SDS011;1537;52.018;8.542;2023-05-10T17:43:10;14.53;;;10.60;;
3054;SDS011;1537;52.018;8.542;2023-05-10T17:46:46;12.93;;;8.70;;
3054;SDS011;1537;52.018;8.542;2023-05-10T17:50:14;14.33;;;7.90;;
3054;SDS011;1537;52.018;8.542;2023-05-10T17:53:40;14.80;;;8.43;;
3054;SDS011;1537;52.018;8.542;2023-05-10T17:57:06;14.20;;;9.33;;
3054;SDS011;1537;52.018;8.542;2023-05-10T18:00:32;13.87;;;8.00;;
3054;SDS011;1537;52.018;8.542;2023-05-10T18:04:00;12.37;;;8.30;;
3054;SDS011;1537;52.018;8.542;2023-05-10T18:07:27;14.33;;;7.77;;
3054;SDS011;1537;52.018;8.542;2023-05-10T18:11:00;13.37;;;8.70;;
3054;SDS011;1537;52.018;8.542;2023-05-10T18:14:25;14.47;;;8.40;;
3054;SDS011;1537;52.018;8.542;2023-05-10T18:18:03;14.57;;;9.10;;
3054;SDS011;1537;52.018;8.542;2023-05-10T18:21:28;14.33;;;8.73;;
3054;SDS011;1537;52.018;8.542;2023-05-10T18:24:54;12.50;;;8.10;;
3054;SDS011;1537;52.018;8.542;2023-05-10T18:28:19;14.83;;;7.30;;
3054;SDS011;1537;52.018;8.542;2023-05-10T18:31:44;12.00;;;8.50;;
3054;SDS011;1537;52.018;8.542;2023-05-10T18:35:10;12.97;;;8.13;;
3054;SDS011;1537;52.018;8.542;2023-05-10T18:38:38;10.13;;;6.97;;
3054;SDS011;1537;52.018;8.542;2023-05-10T18:42:06;11.00;;;7.03;;
3054;SDS011;1537;52.018;8.542;2023-05-10T18:45:31;14.27;;;7.57;;
3054;SDS011;1537;52.018;8.542;2023-05-10T18:48:56;12.73;;;7.40;;
3054;SDS011;1537;52.018;8.542;2023-05-10T18:52:20;11.70;;;7.40;;
3054;SDS011;1537;52.018;8.542;2023-05-10T18:55:45;10.80;;;7.70;;
3054;SDS011;1537;52.018;8.542;2023-05-10T18:59:10;13.10;;;7.63;;
3054;SDS011;1537;52.018;8.542;2023-05-10T19:02:35;11.73;;;5.93;;
3054;SDS011;1537;52.018;8.542;2023-05-10T19:06:00;10.40;;;6.77;;
3054;SDS011;1537;52.018;8.542;2023-05-10T19:09:27;11.17;;;6.57;;
3054;SDS011;1537;52.018;8.542;2023-05-10T19:12:53;9.07;;;6.57;;
3054;SDS011;1537;52.018;8.542;2023-05-10T19:16:21;10.77;;;6.23;;
3054;SDS011;1537;52.018;8.542;2023-05-10T19:19:46;13.00;;;6.50;;
3054;SDS011;1537;52.018;8.542;2023-05-10T19:23:11;12.60;;;7.53;;
3054;SDS011;1537;52.018;8.542;2023-05-10T19:26:37;12.10;;;8.40;;
3054;SDS011;1537;52.018;8.542;2023-05-10T19:30:00;13.37;;;7.90;;
3054;SDS011;1537;52.018;8.542;2023-05-10T19:33:26;10.80;;;6.70;;
3054;SDS011;1537;52.018;8.542;2023-05-10T19:36:50;11.20;;;6.90;;
3054;SDS011;1537;52.018;8.542;2023-05-10T19:40:24;9.83;;;7.23;;
3054;SDS011;1537;52.018;8.542;2023-05-10T19:43:54;11.00;;;7.87;;
3054;SDS011;1537;52.018;8.542;2023-05-10T19:47:19;16.83;;;8.10;;
3054;SDS011;1537;52.018;8.542;2023-05-10T19:50:45;9.70;;;6.30;;
3054;SDS011;1537;52.018;8.542;2023-05-10T19:54:09;10.30;;;7.53;;
3054;SDS011;1537;52.018;8.542;2023-05-10T19:57:36;12.10;;;7.50;;
3054;SDS011;1537;52.018;8.542;2023-05-10T20:01:03;10.63;;;6.93;;
3054;SDS011;1537;52.018;8.542;2023-05-10T20:04:29;11.20;;;7.60;;
3054;SDS011;1537;52.018;8.542;2023-05-10T20:07:56;10.40;;;6.90;;
3054;SDS011;1537;52.018;8.542;2023-05-10T20:11:27;9.60;;;6.90;;
3054;SDS011;1537;52.018;8.542;2023-05-10T20:14:57;11.00;;;7.60;;
3054;SDS011;1537;52.018;8.542;2023-05-10T20:18:23;10.40;;;6.90;;
3054;SDS011;1537;52.018;8.542;2023-05-10T20:21:48;10.00;;;7.50;;
3054;SDS011;1537;52.018;8.542;2023-05-10T20:25:20;13.43;;;7.60;;
3054;SDS011;1537;52.018;8.542;2023-05-10T20:28:44;11.57;;;9.10;;
3054;SDS011;1537;52.018;8.542;2023-05-10T20:32:08;13.27;;;10.03;;
3054;SDS011;1537;52.018;8.542;2023-05-10T20:35:32;12.90;;;8.50;;
3054;SDS011;1537;52.018;8.542;2023-05-10T20:38:56;15.57;;;8.60;;
3054;SDS011;1537;52.018;8.542;2023-05-10T20:42:21;13.67;;;9.63;;
3054;SDS011;1537;52.018;8.542;2023-05-10T20:45:46;13.27;;;10.20;;
3054;SDS011;1537;52.018;8.542;2023-05-10T20:49:11;16.50;;;11.03;;
3054;SDS011;1537;52.018;8.542;2023-05-10T20:52:35;16.90;;;10.67;;
3054;SDS011;1537;52.018;8.542;2023-05-10T20:55:59;16.57;;;10.40;;
3054;SDS011;1537;52.018;8.542;2023-05-10T20:59:24;18.50;;;12.20;;